createdAt,value
2023-02-09T00:02:20.030Z,46.10
2023-02-09T00:04:50.073Z,46.60
2023-02-09T00:07:17.059Z,47.60
2023-02-09T00:09:45.626Z,47.90
2023-02-09T00:12:34.643Z,46.00
2023-02-09T00:15:01.830Z,46.00
2023-02-09T00:17:28.929Z,47.80
2023-02-09T00:19:57.655Z,47.80
2023-02-09T00:22:27.315Z,49.50
2023-02-09T00:24:57.049Z,50.30
2023-02-09T00:27:24.407Z,50.60
2023-02-09T00:29:53.989Z,51.50
2023-02-09T00:32:20.916Z,50.90
2023-02-09T00:34:47.994Z,52.10
2023-02-09T00:37:18.268Z,52.80
2023-02-09T00:39:46.189Z,51.70
2023-02-09T00:42:14.007Z,50.00
2023-02-09T00:44:42.797Z,49.90
2023-02-09T00:47:10.725Z,46.60
2023-02-09T00:49:40.232Z,44.90
2023-02-09T00:52:09.832Z,46.50
2023-02-09T00:54:37.170Z,45.50
2023-02-09T00:57:05.627Z,47.00
2023-02-09T00:59:35.431Z,42.70
2023-02-09T01:02:03.039Z,47.50
2023-02-09T01:04:30.276Z,45.60
2023-02-09T01:06:57.262Z,46.10
2023-02-09T01:09:27.946Z,44.80
2023-02-09T01:11:55.080Z,43.40
2023-02-09T01:14:25.551Z,46.20
2023-02-09T01:16:52.769Z,44.30
2023-02-09T01:19:19.939Z,47.00
2023-02-09T01:21:50.261Z,43.10
2023-02-09T01:24:17.602Z,44.30
2023-02-09T01:26:45.025Z,44.90
2023-02-09T01:29:23.483Z,44.60
2023-02-09T01:31:50.738Z,45.70
2023-02-09T01:34:21.032Z,43.70
2023-02-09T01:36:49.478Z,43.50
2023-02-09T01:39:17.299Z,44.10
2023-02-09T01:41:45.101Z,44.20
2023-02-09T01:44:42.684Z,44.20
2023-02-09T01:47:16.229Z,42.70
2023-02-09T01:49:45.215Z,43.20
2023-02-09T01:52:18.803Z,40.50
2023-02-09T01:54:50.906Z,43.10
2023-02-09T01:57:21.404Z,43.40
2023-02-09T01:59:55.314Z,41.80
2023-02-09T02:02:23.634Z,41.90
2023-02-09T02:04:51.508Z,43.40
2023-02-09T02:07:26.410Z,41.40
2023-02-09T02:09:54.537Z,43.20
2023-02-09T02:12:21.972Z,42.30
2023-02-09T02:14:48.995Z,41.10
2023-02-09T02:17:29.199Z,42.90
2023-02-09T02:20:29.175Z,38.80
2023-02-09T02:23:06.436Z,39.40
2023-02-09T02:26:08.753Z,40.40
2023-02-09T02:29:07.636Z,40.20
2023-02-09T02:32:11.423Z,41.20
2023-02-09T02:34:47.111Z,40.60
2023-02-09T02:37:25.520Z,42.10
2023-02-09T02:40:00.218Z,42.30
2023-02-09T02:42:54.955Z,40.50
2023-02-09T02:45:30.215Z,40.10
2023-02-09T02:48:08.222Z,40.30
2023-02-09T02:50:46.247Z,40.10
2023-02-09T02:53:19.092Z,40.30
2023-02-09T02:56:01.139Z,40.30
2023-02-09T02:58:30.395Z,40.10
2023-02-09T03:01:01.450Z,41.30
2023-02-09T03:03:33.764Z,43.90
2023-02-09T03:06:04.136Z,41.70
2023-02-09T03:08:31.386Z,39.30
2023-02-09T03:10:58.518Z,39.60
2023-02-09T03:13:54.095Z,41.20
2023-02-09T03:16:28.713Z,39.10
2023-02-09T03:19:11.167Z,39.20
2023-02-09T03:21:47.138Z,40.30
2023-02-09T03:24:25.885Z,39.60
2023-02-09T03:26:56.810Z,39.50
2023-02-09T03:29:29.383Z,40.90
2023-02-09T03:31:57.412Z,42.60
2023-02-09T03:34:24.667Z,42.00
2023-02-09T03:36:56.303Z,41.70
2023-02-09T03:39:23.363Z,38.70
2023-02-09T03:41:50.320Z,40.00
2023-02-09T03:44:29.776Z,40.20
2023-02-09T03:46:58.458Z,41.00
2023-02-09T03:49:30.428Z,39.40
2023-02-09T03:52:01.934Z,39.80
2023-02-09T03:54:40.774Z,39.10
2023-02-09T03:57:08.431Z,38.90
2023-02-09T03:59:37.813Z,39.80
2023-02-09T04:02:10.351Z,39.20
2023-02-09T04:04:57.621Z,38.50
2023-02-09T04:07:39.103Z,37.80
2023-02-09T04:10:26.267Z,39.50
2023-02-09T04:12:53.147Z,37.90
2023-02-09T04:15:22.368Z,37.90
2023-02-09T04:17:52.575Z,37.10
2023-02-09T04:20:19.894Z,38.30
2023-02-09T04:22:49.760Z,38.50
2023-02-09T04:25:17.126Z,38.30
2023-02-09T04:27:47.256Z,40.10
2023-02-09T04:30:19.322Z,38.10
2023-02-09T04:32:46.292Z,39.40
2023-02-09T04:35:13.447Z,38.00
2023-02-09T04:37:40.438Z,38.40
2023-02-09T04:40:08.975Z,38.10
2023-02-09T04:42:36.061Z,38.00
2023-02-09T04:45:03.319Z,38.00
2023-02-09T04:47:30.231Z,39.30
2023-02-09T04:49:57.212Z,37.20
2023-02-09T04:52:24.383Z,38.40
2023-02-09T04:54:51.471Z,39.00
2023-02-09T04:57:38.558Z,37.90
2023-02-09T05:00:06.233Z,37.40
2023-02-09T05:02:35.708Z,38.70
2023-02-09T05:05:03.393Z,38.30
2023-02-09T05:07:30.542Z,39.90
2023-02-09T05:09:57.599Z,39.50
2023-02-09T05:12:24.695Z,39.10
2023-02-09T05:14:51.751Z,39.50
2023-02-09T05:17:21.163Z,38.70
2023-02-09T05:19:51.914Z,39.40
2023-02-09T05:22:19.214Z,39.70
2023-02-09T05:24:46.223Z,38.90
2023-02-09T05:27:13.576Z,40.50
2023-02-09T05:29:40.748Z,40.50
2023-02-09T05:32:08.149Z,41.50
2023-02-09T05:34:35.463Z,39.20
2023-02-09T05:37:02.832Z,40.80
2023-02-09T05:39:32.918Z,40.50
2023-02-09T05:42:18.028Z,38.10
2023-02-09T05:44:45.794Z,39.90
2023-02-09T05:47:18.139Z,40.00
2023-02-09T05:49:54.776Z,39.50
2023-02-09T05:52:22.745Z,38.60
2023-02-09T05:54:51.339Z,39.10
2023-02-09T05:57:19.058Z,40.00
2023-02-09T05:59:46.158Z,39.30
2023-02-09T06:02:13.597Z,40.60
2023-02-09T06:04:40.844Z,37.70
2023-02-09T06:07:09.931Z,36.80
2023-02-09T06:09:37.995Z,39.50
2023-02-09T06:12:05.220Z,40.70
2023-02-09T06:14:32.315Z,37.10
2023-02-09T06:16:59.390Z,38.80
2023-02-09T06:19:26.549Z,40.00
2023-02-09T06:21:54.300Z,40.10
2023-02-09T06:24:21.455Z,38.70
2023-02-09T06:26:48.497Z,38.50
2023-02-09T06:29:15.749Z,40.00
2023-02-09T06:31:42.954Z,40.40
2023-02-09T06:34:10.902Z,41.40
2023-02-09T06:36:38.026Z,39.70
2023-02-09T06:39:07.769Z,41.90
2023-02-09T06:41:34.710Z,39.60
2023-02-09T06:44:02.270Z,37.20
2023-02-09T06:46:33.682Z,41.60
2023-02-09T06:49:00.728Z,41.80
2023-02-09T06:51:28.199Z,38.30
2023-02-09T06:53:55.352Z,40.10
2023-02-09T06:56:24.949Z,40.10
2023-02-09T06:58:52.563Z,39.70
2023-02-09T07:01:22.659Z,38.30
2023-02-09T07:03:49.597Z,39.30
2023-02-09T07:06:21.355Z,40.10
2023-02-09T07:08:49.817Z,40.00
2023-02-09T07:11:18.921Z,39.30
2023-02-09T07:13:47.003Z,40.00
2023-02-09T07:16:14.371Z,39.30
2023-02-09T07:18:41.521Z,39.30
2023-02-09T07:21:12.628Z,39.40
2023-02-09T07:23:40.228Z,39.50
2023-02-09T07:26:09.161Z,41.20
2023-02-09T07:28:47.918Z,39.70
2023-02-09T07:31:35.803Z,41.10
2023-02-09T07:34:05.924Z,40.20
2023-02-09T07:36:53.041Z,40.60
2023-02-09T07:42:09.395Z,41.20
2023-02-09T07:44:51.529Z,42.10
2023-02-09T07:47:21.285Z,40.80
2023-02-09T07:49:48.379Z,40.30
2023-02-09T07:52:15.711Z,41.10
2023-02-09T07:54:42.912Z,40.60
2023-02-09T07:57:10.094Z,41.40
2023-02-09T07:59:37.747Z,40.40
2023-02-09T08:02:05.767Z,40.70
2023-02-09T08:04:36.301Z,42.20
2023-02-09T08:07:05.818Z,42.50
2023-02-09T08:09:35.542Z,43.70
2023-02-09T08:12:06.457Z,42.90
2023-02-09T08:14:39.974Z,42.20
2023-02-09T08:17:24.343Z,43.10
2023-02-09T08:19:54.048Z,42.90
2023-02-09T08:22:22.784Z,42.00
2023-02-09T08:24:50.471Z,42.60
2023-02-09T08:27:17.617Z,41.50
2023-02-09T08:29:44.662Z,42.00
2023-02-09T08:32:11.749Z,41.00
2023-02-09T08:34:38.811Z,43.50
2023-02-09T08:39:41.134Z,41.20
2023-02-09T08:42:08.304Z,41.10
2023-02-09T08:44:35.687Z,41.10
2023-02-09T08:47:02.962Z,41.40
2023-02-09T08:49:30.366Z,41.90
2023-02-09T08:51:57.633Z,41.80
2023-02-09T08:54:25.511Z,40.20
2023-02-09T08:56:52.613Z,40.10
2023-02-09T08:59:20.213Z,39.90
2023-02-09T09:01:47.272Z,38.70
2023-02-09T09:04:14.303Z,39.10
2023-02-09T09:06:44.169Z,39.20
2023-02-09T09:09:11.856Z,41.80
2023-02-09T09:11:39.221Z,40.10
2023-02-09T09:14:06.439Z,38.90
2023-02-09T09:16:33.393Z,41.20
2023-02-09T09:19:00.351Z,37.50
2023-02-09T09:21:27.608Z,39.90
2023-02-09T09:23:54.788Z,40.30
2023-02-09T09:26:21.906Z,40.50
2023-02-09T09:28:52.105Z,40.80
2023-02-09T09:31:20.186Z,40.50
2023-02-09T09:33:47.861Z,39.40
2023-02-09T09:36:15.964Z,38.20
2023-02-09T09:38:45.818Z,39.90
2023-02-09T09:41:23.856Z,38.60
2023-02-09T09:43:52.034Z,39.70
2023-02-09T09:46:22.124Z,39.80
2023-02-09T09:48:52.819Z,41.00
2023-02-09T09:51:25.888Z,40.60
2023-02-09T09:53:56.012Z,39.20
2023-02-09T09:56:25.020Z,38.10
2023-02-09T09:58:54.464Z,39.20
2023-02-09T10:01:23.694Z,36.30
2023-02-09T10:03:50.673Z,37.20
2023-02-09T10:06:20.829Z,37.40
2023-02-09T10:08:53.961Z,36.80
2023-02-09T10:11:28.901Z,35.20
2023-02-09T10:13:57.509Z,37.00
2023-02-09T10:16:27.393Z,37.20
2023-02-09T10:18:56.129Z,34.90
2023-02-09T10:21:25.177Z,34.60
2023-02-09T10:24:04.805Z,36.00
2023-02-09T10:26:33.793Z,33.70
2023-02-09T10:29:08.451Z,35.30
2023-02-09T10:31:40.024Z,34.80
2023-02-09T10:34:14.825Z,34.20
2023-02-09T10:36:51.569Z,36.00
2023-02-09T10:39:23.615Z,32.80
2023-02-09T10:41:53.281Z,33.20
2023-02-09T10:44:25.179Z,34.70
2023-02-09T10:47:09.777Z,32.90
2023-02-09T10:49:40.050Z,34.90
2023-02-09T10:52:18.436Z,32.40
2023-02-09T10:54:48.964Z,30.10
2023-02-09T10:57:26.238Z,31.10
2023-02-09T10:59:58.987Z,32.60
2023-02-09T11:02:43.197Z,30.00
2023-02-09T11:05:29.257Z,30.50
2023-02-09T11:08:00.165Z,28.60
2023-02-09T11:10:30.716Z,28.40
2023-02-09T11:12:58.417Z,26.50
2023-02-09T11:15:31.257Z,25.90
2023-02-09T11:18:06.921Z,24.60
2023-02-09T11:20:41.488Z,25.10
2023-02-09T11:23:37.112Z,23.10
2023-02-09T11:26:10.367Z,23.80
2023-02-09T11:28:48.897Z,23.60
2023-02-09T11:31:31.989Z,23.60
2023-02-09T11:34:07.106Z,23.70
2023-02-09T11:36:47.132Z,22.20
2023-02-09T11:39:20.378Z,20.70
2023-02-09T11:42:13.785Z,20.20
2023-02-09T11:44:47.778Z,19.70
2023-02-09T11:47:20.682Z,20.50
2023-02-09T11:49:50.334Z,19.50
2023-02-09T11:52:22.191Z,18.80
2023-02-09T11:54:55.269Z,19.70
2023-02-09T11:57:32.722Z,21.10
2023-02-09T12:00:02.644Z,20.40
2023-02-09T12:02:46.422Z,18.60
2023-02-09T12:05:20.348Z,19.70
2023-02-09T12:08:07.296Z,21.70
2023-02-09T12:10:42.608Z,20.10
2023-02-09T12:13:23.378Z,20.00
2023-02-09T12:16:05.885Z,20.30
2023-02-09T12:18:36.544Z,21.00
2023-02-09T12:21:06.407Z,20.20
2023-02-09T12:23:46.766Z,20.30
2023-02-09T12:26:41.334Z,21.90
2023-02-09T12:29:34.000Z,20.80
2023-02-09T12:32:42.983Z,20.60
2023-02-09T12:35:28.510Z,21.20
2023-02-09T12:38:10.288Z,21.30
2023-02-09T12:40:39.878Z,21.40
2023-02-09T12:43:13.333Z,21.80
2023-02-09T12:45:41.885Z,20.70
2023-02-09T12:48:19.427Z,21.30
2023-02-09T12:50:54.229Z,21.30
2023-02-09T12:53:50.814Z,21.10
2023-02-09T12:56:32.832Z,21.10
2023-02-09T12:59:14.710Z,21.00
2023-02-09T13:02:13.186Z,20.20
2023-02-09T13:04:45.130Z,21.70
2023-02-09T13:07:23.847Z,19.50
2023-02-09T13:09:53.289Z,22.10
2023-02-09T13:12:25.138Z,21.00
2023-02-09T13:14:53.740Z,20.10
2023-02-09T13:17:39.492Z,18.50
2023-02-09T13:20:29.329Z,19.30
2023-02-09T13:25:44.263Z,18.90
2023-02-09T13:28:18.241Z,19.50
2023-02-09T13:30:46.234Z,18.30
2023-02-09T13:33:30.795Z,18.40
2023-02-09T13:36:19.621Z,18.60
2023-02-09T13:38:54.540Z,19.00
2023-02-09T13:41:33.222Z,18.00
2023-02-09T13:44:03.011Z,18.00
2023-02-09T13:46:35.321Z,16.50
2023-02-09T13:49:16.890Z,17.20
2023-02-09T13:51:44.229Z,18.10
2023-02-09T13:54:21.363Z,16.30
2023-02-09T13:56:48.815Z,15.90
2023-02-09T13:59:17.843Z,15.80
2023-02-09T14:01:46.480Z,16.00
2023-02-09T14:04:17.375Z,15.80
2023-02-09T14:06:48.635Z,15.70
2023-02-09T14:09:25.117Z,15.00
2023-02-09T14:11:57.999Z,14.80
2023-02-09T14:14:51.811Z,16.30
2023-02-09T14:17:27.349Z,15.10
2023-02-09T14:19:55.552Z,14.90
2023-02-09T14:22:37.144Z,15.80
2023-02-09T14:25:29.618Z,14.50
2023-02-09T14:27:58.353Z,15.00
2023-02-09T14:30:27.952Z,15.80
2023-02-09T14:33:00.365Z,15.50
2023-02-09T14:35:42.145Z,15.60
2023-02-09T14:38:36.310Z,15.80
2023-02-09T14:41:34.635Z,16.50
2023-02-09T14:44:22.694Z,15.70
2023-02-09T14:47:01.929Z,16.30
2023-02-09T14:49:30.043Z,16.20
2023-02-09T14:52:05.472Z,16.90
2023-02-09T14:54:52.969Z,15.50
2023-02-09T14:57:21.387Z,15.80
2023-02-09T14:59:59.023Z,15.20
2023-02-09T15:02:28.332Z,16.50
2023-02-09T15:04:56.527Z,16.40
2023-02-09T15:07:30.058Z,17.10
2023-02-09T15:09:57.164Z,15.80
2023-02-09T15:12:27.537Z,16.90
2023-02-09T15:14:58.844Z,17.10
2023-02-09T15:17:30.312Z,17.20
2023-02-09T15:19:58.415Z,17.40
2023-02-09T15:22:26.175Z,18.10
2023-02-09T15:24:54.667Z,18.30
2023-02-09T15:27:33.891Z,19.80
2023-02-09T15:30:04.384Z,20.30
2023-02-09T15:32:32.230Z,19.40
2023-02-09T15:34:59.348Z,18.30
2023-02-09T15:37:29.547Z,20.30
2023-02-09T15:40:00.039Z,19.90
2023-02-09T15:42:47.241Z,21.00
2023-02-09T15:45:43.823Z,20.60
2023-02-09T15:48:11.663Z,20.60
2023-02-09T15:50:45.571Z,22.50
2023-02-09T15:53:18.798Z,20.40
2023-02-09T15:55:58.743Z,20.70
2023-02-09T15:58:35.220Z,20.60
2023-02-09T16:01:23.642Z,21.90
2023-02-09T16:04:13.395Z,19.90
2023-02-09T16:06:47.599Z,21.60
2023-02-09T16:09:20.298Z,20.40
2023-02-09T16:11:48.568Z,20.80
2023-02-09T16:14:20.525Z,22.50
2023-02-09T16:16:48.326Z,21.30
2023-02-09T16:19:16.942Z,24.00
2023-02-09T16:21:47.329Z,24.20
2023-02-09T16:24:23.108Z,24.50
2023-02-09T16:26:50.369Z,24.10
2023-02-09T16:29:19.961Z,23.70
2023-02-09T16:31:46.944Z,25.20
2023-02-09T16:34:15.670Z,24.60
2023-02-09T16:36:44.181Z,25.40
2023-02-09T16:39:19.710Z,24.60
2023-02-09T16:41:50.816Z,25.00
2023-02-09T16:44:21.338Z,24.60
2023-02-09T16:46:49.784Z,24.60
2023-02-09T16:49:28.237Z,25.30
2023-02-09T16:51:56.651Z,25.20
2023-02-09T16:54:24.330Z,24.50
2023-02-09T16:56:54.493Z,25.90
2023-02-09T16:59:21.972Z,26.10
2023-02-09T17:01:49.492Z,25.20
2023-02-09T17:04:16.700Z,24.80
2023-02-09T17:06:45.123Z,26.30
2023-02-09T17:09:17.793Z,26.20
2023-02-09T17:11:45.233Z,27.50
2023-02-09T17:14:12.802Z,26.20
2023-02-09T17:16:43.492Z,27.10
2023-02-09T17:19:18.194Z,29.30
2023-02-09T17:21:45.663Z,27.90
2023-02-09T17:24:17.898Z,31.70
2023-02-09T17:26:45.632Z,30.40
2023-02-09T17:29:13.411Z,29.60
2023-02-09T17:31:52.942Z,28.80
2023-02-09T17:34:27.198Z,27.60
2023-02-09T17:36:54.465Z,31.40
2023-02-09T17:39:21.568Z,29.60
2023-02-09T17:41:50.081Z,29.80
2023-02-09T17:44:29.018Z,28.30
2023-02-09T17:47:03.494Z,28.40
2023-02-09T17:49:30.471Z,26.50
2023-02-09T17:51:57.496Z,26.70
2023-02-09T17:54:24.563Z,27.60
2023-02-09T17:56:51.655Z,27.50
2023-02-09T17:59:20.353Z,28.50
2023-02-09T18:01:50.507Z,29.20
2023-02-09T18:04:26.861Z,28.00
2023-02-09T18:06:56.040Z,28.60
2023-02-09T18:09:44.890Z,27.80
2023-02-09T18:12:19.743Z,29.60
2023-02-09T18:14:47.000Z,29.00
2023-02-09T18:17:17.331Z,29.60
2023-02-09T18:19:44.353Z,27.30
2023-02-09T18:22:17.015Z,29.90
2023-02-09T18:25:00.235Z,27.90
2023-02-09T18:27:27.498Z,28.50
2023-02-09T18:29:55.381Z,28.30
2023-02-09T18:32:25.812Z,28.30
2023-02-09T18:34:52.792Z,28.20
2023-02-09T18:37:19.919Z,28.30
2023-02-09T18:39:47.807Z,27.30
2023-02-09T18:42:35.493Z,26.70
2023-02-09T18:45:03.029Z,28.70
2023-02-09T18:47:50.583Z,27.30
2023-02-09T18:50:28.953Z,26.90
2023-02-09T18:52:58.044Z,24.80
2023-02-09T18:55:29.459Z,25.40
2023-02-09T18:57:57.084Z,23.90
2023-02-09T19:00:24.967Z,26.00
2023-02-09T19:03:02.953Z,25.40
2023-02-09T19:05:32.231Z,24.80
2023-02-09T19:08:01.933Z,25.10
2023-02-09T19:10:30.702Z,25.30
2023-02-09T19:12:57.965Z,24.80
2023-02-09T19:15:26.051Z,24.20
2023-02-09T19:17:55.181Z,24.30
2023-02-09T19:20:27.122Z,24.20
2023-02-09T19:22:55.597Z,24.20
2023-02-09T19:25:28.148Z,24.30
2023-02-09T19:27:56.100Z,24.60
2023-02-09T19:30:30.700Z,25.40
2023-02-09T19:33:01.285Z,24.10
2023-02-09T19:35:39.575Z,22.80
2023-02-09T19:38:06.609Z,23.30
2023-02-09T19:40:41.024Z,24.00
2023-02-09T19:43:12.481Z,24.60
2023-02-09T19:45:39.532Z,23.70
2023-02-09T19:48:08.190Z,24.90
2023-02-09T19:50:36.700Z,22.60
2023-02-09T19:53:03.911Z,24.80
2023-02-09T19:55:52.517Z,24.60
2023-02-09T19:58:21.427Z,23.50
2023-02-09T20:00:58.688Z,23.90
2023-02-09T20:03:26.003Z,24.20
2023-02-09T20:06:15.205Z,25.00
2023-02-09T20:08:43.150Z,25.50
2023-02-09T20:11:12.840Z,24.20
2023-02-09T20:13:40.617Z,24.00
2023-02-09T20:16:12.534Z,24.20
2023-02-09T20:18:43.615Z,24.60
2023-02-09T20:21:12.958Z,25.10
2023-02-09T20:23:40.131Z,24.90
2023-02-09T20:26:14.288Z,24.80
2023-02-09T20:28:43.791Z,23.70
2023-02-09T20:31:11.567Z,24.80
2023-02-09T20:33:40.461Z,22.50
2023-02-09T20:36:10.228Z,22.90
2023-02-09T20:38:38.770Z,23.70
2023-02-09T20:41:10.968Z,22.90
2023-02-09T20:44:06.307Z,22.70
2023-02-09T20:46:54.245Z,21.50
2023-02-09T20:49:21.781Z,22.40
2023-02-09T20:51:48.896Z,21.70
2023-02-09T20:54:17.903Z,22.50
2023-02-09T20:56:45.033Z,21.70
2023-02-09T20:59:12.737Z,20.60
2023-02-09T21:01:41.677Z,21.40
2023-02-09T21:04:09.696Z,21.90
2023-02-09T21:06:38.151Z,21.60
2023-02-09T21:09:05.712Z,21.30
2023-02-09T21:11:32.810Z,22.20
2023-02-09T21:14:01.334Z,21.70
2023-02-09T21:16:32.175Z,21.70
2023-02-09T21:18:59.629Z,22.00
2023-02-09T21:21:27.641Z,22.20
2023-02-09T21:23:54.846Z,21.50
2023-02-09T21:26:24.615Z,22.50
2023-02-09T21:28:52.574Z,22.20
2023-02-09T21:31:23.162Z,21.90
2023-02-09T21:33:52.641Z,21.90
2023-02-09T21:36:22.277Z,22.40
2023-02-09T21:38:49.875Z,22.40
2023-02-09T21:41:38.123Z,22.30
2023-02-09T21:44:05.939Z,23.50
2023-02-09T21:46:33.382Z,22.60
2023-02-09T21:49:00.418Z,22.80
2023-02-09T21:51:28.035Z,23.60
2023-02-09T21:53:55.875Z,23.60
2023-02-09T21:56:23.316Z,23.50
2023-02-09T21:58:50.734Z,22.60
2023-02-09T22:01:18.277Z,23.00
2023-02-09T22:03:48.793Z,23.40
2023-02-09T22:06:16.586Z,24.00
2023-02-09T22:08:43.500Z,23.00
2023-02-09T22:11:13.976Z,23.10
2023-02-09T22:13:41.091Z,23.20
2023-02-09T22:16:11.075Z,24.50
2023-02-09T22:18:38.527Z,23.40
2023-02-09T22:21:09.005Z,23.60
2023-02-09T22:23:36.156Z,22.60
2023-02-09T22:26:05.706Z,23.60
2023-02-09T22:28:43.521Z,23.00
2023-02-09T22:31:12.798Z,21.60
2023-02-09T22:33:40.272Z,23.50
2023-02-09T22:36:27.636Z,25.00
2023-02-09T22:39:14.747Z,22.90
2023-02-09T22:41:51.011Z,22.60
2023-02-09T22:44:20.360Z,23.50
2023-02-09T22:46:50.831Z,22.90
2023-02-09T22:49:20.430Z,22.60
2023-02-09T22:51:49.385Z,23.10
2023-02-09T22:54:18.711Z,22.20
2023-02-09T22:56:46.387Z,21.60
2023-02-09T22:59:15.400Z,22.90
2023-02-09T23:01:42.954Z,22.80
2023-02-09T23:04:14.221Z,22.40
2023-02-09T23:06:50.644Z,21.80
2023-02-09T23:09:17.847Z,21.70
2023-02-09T23:11:45.347Z,21.90
2023-02-09T23:14:12.671Z,21.70
2023-02-09T23:16:49.721Z,21.70
2023-02-09T23:19:19.187Z,21.60
2023-02-09T23:21:48.082Z,21.20
2023-02-09T23:24:16.613Z,21.50
2023-02-09T23:26:45.629Z,21.70
2023-02-09T23:29:15.088Z,21.40
2023-02-09T23:31:42.587Z,21.10
2023-02-09T23:34:12.929Z,19.70
2023-02-09T23:36:39.813Z,20.90
2023-02-09T23:39:08.237Z,20.10
2023-02-09T23:41:36.556Z,20.10
2023-02-09T23:44:04.148Z,19.40
2023-02-09T23:46:31.701Z,20.30
2023-02-09T23:48:59.308Z,19.90
2023-02-09T23:51:28.699Z,19.20
2023-02-09T23:53:57.298Z,20.30
2023-02-09T23:56:24.878Z,20.60
2023-02-09T23:58:53.757Z,20.40
